sensor_id;sensor_type;location;lat;lon;timestamp;temperature;humidity
56478;DHT22;42382;53.210;5.772;2024-02-21T00:00:56;9.00;94.50
56478;DHT22;42382;53.210;5.772;2024-02-21T00:03:21;9.00;94.50
56478;DHT22;42382;53.210;5.772;2024-02-21T00:05:48;8.90;94.60
56478;DHT22;42382;53.210;5.772;2024-02-21T00:08:13;9.00;94.60
56478;DHT22;42382;53.210;5.772;2024-02-21T00:10:41;8.90;94.70
56478;DHT22;42382;53.210;5.772;2024-02-21T00:13:07;8.90;94.70
56478;DHT22;42382;53.210;5.772;2024-02-21T00:15:32;8.90;94.70
56478;DHT22;42382;53.210;5.772;2024-02-21T00:17:58;9.00;94.70
56478;DHT22;42382;53.210;5.772;2024-02-21T00:20:23;9.00;94.70
56478;DHT22;42382;53.210;5.772;2024-02-21T00:22:51;9.00;94.60
56478;DHT22;42382;53.210;5.772;2024-02-21T00:25:16;8.90;94.70
56478;DHT22;42382;53.210;5.772;2024-02-21T00:27:42;9.00;94.70
56478;DHT22;42382;53.210;5.772;2024-02-21T00:30:08;9.00;94.70
56478;DHT22;42382;53.210;5.772;2024-02-21T00:32:34;9.00;94.70
56478;DHT22;42382;53.210;5.772;2024-02-21T00:35:00;9.00;94.70
56478;DHT22;42382;53.210;5.772;2024-02-21T00:37:26;9.00;94.70
56478;DHT22;42382;53.210;5.772;2024-02-21T00:39:54;8.90;94.80
56478;DHT22;42382;53.210;5.772;2024-02-21T00:42:19;8.90;94.80
56478;DHT22;42382;53.210;5.772;2024-02-21T00:44:45;8.90;94.80
56478;DHT22;42382;53.210;5.772;2024-02-21T00:47:11;9.00;94.80
56478;DHT22;42382;53.210;5.772;2024-02-21T00:49:36;9.00;94.80
56478;DHT22;42382;53.210;5.772;2024-02-21T00:52:02;8.90;94.90
56478;DHT22;42382;53.210;5.772;2024-02-21T00:54:27;8.90;94.90
56478;DHT22;42382;53.210;5.772;2024-02-21T00:56:53;8.90;94.90
56478;DHT22;42382;53.210;5.772;2024-02-21T00:59:18;8.90;95.00
56478;DHT22;42382;53.210;5.772;2024-02-21T01:01:44;8.90;95.00
56478;DHT22;42382;53.210;5.772;2024-02-21T01:04:10;8.90;95.10
56478;DHT22;42382;53.210;5.772;2024-02-21T01:06:35;8.90;95.10
56478;DHT22;42382;53.210;5.772;2024-02-21T01:09:01;8.90;95.10
56478;DHT22;42382;53.210;5.772;2024-02-21T01:11:27;8.90;95.10
56478;DHT22;42382;53.210;5.772;2024-02-21T01:13:53;8.90;95.20
56478;DHT22;42382;53.210;5.772;2024-02-21T01:16:18;8.90;95.20
56478;DHT22;42382;53.210;5.772;2024-02-21T01:18:44;8.90;95.20
56478;DHT22;42382;53.210;5.772;2024-02-21T01:21:10;8.90;95.20
56478;DHT22;42382;53.210;5.772;2024-02-21T01:23:36;8.90;95.30
56478;DHT22;42382;53.210;5.772;2024-02-21T01:26:03;8.90;95.30
56478;DHT22;42382;53.210;5.772;2024-02-21T01:28:29;8.90;95.30
56478;DHT22;42382;53.210;5.772;2024-02-21T01:30:56;8.90;95.20
56478;DHT22;42382;53.210;5.772;2024-02-21T01:33:21;8.90;95.20
56478;DHT22;42382;53.210;5.772;2024-02-21T01:35:47;8.90;95.20
56478;DHT22;42382;53.210;5.772;2024-02-21T01:38:13;8.90;95.30
56478;DHT22;42382;53.210;5.772;2024-02-21T01:40:39;8.90;95.20
56478;DHT22;42382;53.210;5.772;2024-02-21T01:43:18;8.90;95.20
56478;DHT22;42382;53.210;5.772;2024-02-21T01:45:49;8.90;95.30
56478;DHT22;42382;53.210;5.772;2024-02-21T01:48:17;8.90;95.30
56478;DHT22;42382;53.210;5.772;2024-02-21T01:50:47;8.90;95.30
56478;DHT22;42382;53.210;5.772;2024-02-21T01:53:14;8.90;95.30
56478;DHT22;42382;53.210;5.772;2024-02-21T01:55:47;8.90;95.30
56478;DHT22;42382;53.210;5.772;2024-02-21T01:58:17;8.90;95.30
56478;DHT22;42382;53.210;5.772;2024-02-21T02:00:44;8.90;95.30
56478;DHT22;42382;53.210;5.772;2024-02-21T02:03:11;8.90;95.40
56478;DHT22;42382;53.210;5.772;2024-02-21T02:05:44;8.90;95.40
56478;DHT22;42382;53.210;5.772;2024-02-21T02:08:13;8.90;95.30
56478;DHT22;42382;53.210;5.772;2024-02-21T02:10:39;8.90;95.30
56478;DHT22;42382;53.210;5.772;2024-02-21T02:13:05;8.90;95.30
56478;DHT22;42382;53.210;5.772;2024-02-21T02:15:47;8.90;95.30
56478;DHT22;42382;53.210;5.772;2024-02-21T02:18:14;8.90;95.40
56478;DHT22;42382;53.210;5.772;2024-02-21T02:20:40;8.90;95.30
56478;DHT22;42382;53.210;5.772;2024-02-21T02:23:25;8.90;95.30
56478;DHT22;42382;53.210;5.772;2024-02-21T02:25:51;8.90;95.30
56478;DHT22;42382;53.210;5.772;2024-02-21T02:28:20;8.90;95.30
56478;DHT22;42382;53.210;5.772;2024-02-21T02:30:46;8.90;95.30
56478;DHT22;42382;53.210;5.772;2024-02-21T02:33:12;8.90;95.20
56478;DHT22;42382;53.210;5.772;2024-02-21T02:35:38;8.90;95.20
56478;DHT22;42382;53.210;5.772;2024-02-21T02:38:04;8.80;95.20
56478;DHT22;42382;53.210;5.772;2024-02-21T02:40:34;8.90;95.20
56478;DHT22;42382;53.210;5.772;2024-02-21T02:43:00;8.80;95.10
56478;DHT22;42382;53.210;5.772;2024-02-21T02:45:26;8.80;95.10
56478;DHT22;42382;53.210;5.772;2024-02-21T02:47:55;8.80;95.10
56478;DHT22;42382;53.210;5.772;2024-02-21T02:50:22;8.80;95.10
56478;DHT22;42382;53.210;5.772;2024-02-21T02:52:48;8.80;95.10
56478;DHT22;42382;53.210;5.772;2024-02-21T02:55:14;8.80;95.00
56478;DHT22;42382;53.210;5.772;2024-02-21T02:57:40;8.80;95.10
56478;DHT22;42382;53.210;5.772;2024-02-21T03:00:08;8.80;95.00
56478;DHT22;42382;53.210;5.772;2024-02-21T03:02:34;8.80;95.00
56478;DHT22;42382;53.210;5.772;2024-02-21T03:04:59;8.80;95.10
56478;DHT22;42382;53.210;5.772;2024-02-21T03:07:25;8.80;95.10
56478;DHT22;42382;53.210;5.772;2024-02-21T03:09:51;8.80;95.00
56478;DHT22;42382;53.210;5.772;2024-02-21T03:12:18;8.80;95.10
56478;DHT22;42382;53.210;5.772;2024-02-21T03:14:50;8.80;95.10
56478;DHT22;42382;53.210;5.772;2024-02-21T03:17:16;8.80;95.10
56478;DHT22;42382;53.210;5.772;2024-02-21T03:19:41;8.80;95.10
56478;DHT22;42382;53.210;5.772;2024-02-21T03:22:07;8.80;95.10
56478;DHT22;42382;53.210;5.772;2024-02-21T03:24:33;8.80;95.10
56478;DHT22;42382;53.210;5.772;2024-02-21T03:26:58;8.80;95.10
56478;DHT22;42382;53.210;5.772;2024-02-21T03:29:25;8.80;95.10
56478;DHT22;42382;53.210;5.772;2024-02-21T03:31:51;8.80;95.10
56478;DHT22;42382;53.210;5.772;2024-02-21T03:34:16;8.80;95.10
56478;DHT22;42382;53.210;5.772;2024-02-21T03:36:42;8.80;95.10
56478;DHT22;42382;53.210;5.772;2024-02-21T03:39:07;8.80;95.10
56478;DHT22;42382;53.210;5.772;2024-02-21T03:41:37;8.80;95.00
56478;DHT22;42382;53.210;5.772;2024-02-21T03:44:03;8.90;95.00
56478;DHT22;42382;53.210;5.772;2024-02-21T03:46:28;8.90;95.00
56478;DHT22;42382;53.210;5.772;2024-02-21T03:48:54;8.80;95.00
56478;DHT22;42382;53.210;5.772;2024-02-21T03:51:19;8.90;95.00
56478;DHT22;42382;53.210;5.772;2024-02-21T03:53:45;8.90;95.00
56478;DHT22;42382;53.210;5.772;2024-02-21T03:56:10;8.90;95.00
56478;DHT22;42382;53.210;5.772;2024-02-21T03:58:39;8.90;95.00
56478;DHT22;42382;53.210;5.772;2024-02-21T04:01:04;8.90;95.00
56478;DHT22;42382;53.210;5.772;2024-02-21T04:03:30;8.90;95.00
56478;DHT22;42382;53.210;5.772;2024-02-21T04:05:56;8.90;95.00
56478;DHT22;42382;53.210;5.772;2024-02-21T04:08:22;8.90;95.00
56478;DHT22;42382;53.210;5.772;2024-02-21T04:10:48;8.90;95.10
56478;DHT22;42382;53.210;5.772;2024-02-21T04:13:14;8.90;95.00
56478;DHT22;42382;53.210;5.772;2024-02-21T04:15:39;8.90;95.00
56478;DHT22;42382;53.210;5.772;2024-02-21T04:18:05;8.90;95.00
56478;DHT22;42382;53.210;5.772;2024-02-21T04:20:31;8.90;94.90
56478;DHT22;42382;53.210;5.772;2024-02-21T04:22:57;8.90;95.00
56478;DHT22;42382;53.210;5.772;2024-02-21T04:25:23;8.90;94.90
56478;DHT22;42382;53.210;5.772;2024-02-21T04:27:51;8.80;94.90
56478;DHT22;42382;53.210;5.772;2024-02-21T04:30:17;8.90;94.90
56478;DHT22;42382;53.210;5.772;2024-02-21T04:32:43;8.90;95.00
56478;DHT22;42382;53.210;5.772;2024-02-21T04:35:08;8.80;94.90
56478;DHT22;42382;53.210;5.772;2024-02-21T04:37:34;8.80;94.90
56478;DHT22;42382;53.210;5.772;2024-02-21T04:40:00;8.80;94.90
56478;DHT22;42382;53.210;5.772;2024-02-21T04:42:25;8.80;94.90
56478;DHT22;42382;53.210;5.772;2024-02-21T04:44:51;8.80;95.00
56478;DHT22;42382;53.210;5.772;2024-02-21T04:47:16;8.80;95.00
56478;DHT22;42382;53.210;5.772;2024-02-21T04:49:42;8.80;95.00
56478;DHT22;42382;53.210;5.772;2024-02-21T04:52:08;8.80;95.00
56478;DHT22;42382;53.210;5.772;2024-02-21T04:54:34;8.80;95.00
56478;DHT22;42382;53.210;5.772;2024-02-21T04:57:01;8.80;95.00
56478;DHT22;42382;53.210;5.772;2024-02-21T04:59:26;8.80;95.00
56478;DHT22;42382;53.210;5.772;2024-02-21T05:01:52;8.80;95.00
56478;DHT22;42382;53.210;5.772;2024-02-21T05:04:18;8.80;95.00
56478;DHT22;42382;53.210;5.772;2024-02-21T05:06:43;8.80;95.00
56478;DHT22;42382;53.210;5.772;2024-02-21T05:09:09;8.80;95.00
56478;DHT22;42382;53.210;5.772;2024-02-21T05:11:38;8.80;95.00
56478;DHT22;42382;53.210;5.772;2024-02-21T05:14:04;8.80;95.10
56478;DHT22;42382;53.210;5.772;2024-02-21T05:16:33;8.90;95.10
56478;DHT22;42382;53.210;5.772;2024-02-21T05:18:58;8.80;95.10
56478;DHT22;42382;53.210;5.772;2024-02-21T05:21:24;8.90;95.00
56478;DHT22;42382;53.210;5.772;2024-02-21T05:23:50;8.80;95.10
56478;DHT22;42382;53.210;5.772;2024-02-21T05:26:23;8.80;95.10
56478;DHT22;42382;53.210;5.772;2024-02-21T05:28:49;8.80;95.10
56478;DHT22;42382;53.210;5.772;2024-02-21T05:31:16;8.80;95.10
56478;DHT22;42382;53.210;5.772;2024-02-21T05:33:43;8.80;95.10
56478;DHT22;42382;53.210;5.772;2024-02-21T05:36:08;8.80;95.10
56478;DHT22;42382;53.210;5.772;2024-02-21T05:38:34;8.80;95.10
56478;DHT22;42382;53.210;5.772;2024-02-21T05:41:01;8.80;95.10
56478;DHT22;42382;53.210;5.772;2024-02-21T05:43:26;8.80;95.10
56478;DHT22;42382;53.210;5.772;2024-02-21T05:45:52;8.80;95.10
56478;DHT22;42382;53.210;5.772;2024-02-21T05:48:17;8.80;95.10
56478;DHT22;42382;53.210;5.772;2024-02-21T05:50:43;8.80;95.10
56478;DHT22;42382;53.210;5.772;2024-02-21T05:53:09;8.80;95.10
56478;DHT22;42382;53.210;5.772;2024-02-21T05:55:35;8.70;95.10
56478;DHT22;42382;53.210;5.772;2024-02-21T05:58:01;8.70;95.10
56478;DHT22;42382;53.210;5.772;2024-02-21T06:00:28;8.80;95.20
56478;DHT22;42382;53.210;5.772;2024-02-21T06:02:53;8.80;95.20
56478;DHT22;42382;53.210;5.772;2024-02-21T06:05:19;8.80;95.20
56478;DHT22;42382;53.210;5.772;2024-02-21T06:07:44;8.80;95.20
56478;DHT22;42382;53.210;5.772;2024-02-21T06:10:10;8.70;95.20
56478;DHT22;42382;53.210;5.772;2024-02-21T06:12:36;8.70;95.20
56478;DHT22;42382;53.210;5.772;2024-02-21T06:15:01;8.70;95.20
56478;DHT22;42382;53.210;5.772;2024-02-21T06:17:27;8.70;95.20
56478;DHT22;42382;53.210;5.772;2024-02-21T06:19:52;8.70;95.20
56478;DHT22;42382;53.210;5.772;2024-02-21T06:22:18;8.70;95.20
56478;DHT22;42382;53.210;5.772;2024-02-21T06:24:43;8.70;95.30
56478;DHT22;42382;53.210;5.772;2024-02-21T06:27:09;8.70;95.20
56478;DHT22;42382;53.210;5.772;2024-02-21T06:29:36;8.70;95.20
56478;DHT22;42382;53.210;5.772;2024-02-21T06:32:02;8.70;95.20
56478;DHT22;42382;53.210;5.772;2024-02-21T06:34:28;8.60;95.20
56478;DHT22;42382;53.210;5.772;2024-02-21T06:36:53;8.70;95.20
56478;DHT22;42382;53.210;5.772;2024-02-21T06:39:19;8.70;95.30
56478;DHT22;42382;53.210;5.772;2024-02-21T06:41:44;8.70;95.30
56478;DHT22;42382;53.210;5.772;2024-02-21T06:44:10;8.70;95.30
56478;DHT22;42382;53.210;5.772;2024-02-21T06:46:36;8.70;95.30
56478;DHT22;42382;53.210;5.772;2024-02-21T06:49:02;8.70;95.30
56478;DHT22;42382;53.210;5.772;2024-02-21T06:51:29;8.70;95.30
56478;DHT22;42382;53.210;5.772;2024-02-21T06:53:55;8.70;95.30
56478;DHT22;42382;53.210;5.772;2024-02-21T06:56:23;8.70;95.30
56478;DHT22;42382;53.210;5.772;2024-02-21T06:58:54;8.70;95.40
56478;DHT22;42382;53.210;5.772;2024-02-21T07:01:20;8.70;95.40
56478;DHT22;42382;53.210;5.772;2024-02-21T07:03:45;8.70;95.40
56478;DHT22;42382;53.210;5.772;2024-02-21T07:06:11;8.80;95.40
56478;DHT22;42382;53.210;5.772;2024-02-21T07:08:37;8.70;95.40
56478;DHT22;42382;53.210;5.772;2024-02-21T07:11:04;8.70;95.40
56478;DHT22;42382;53.210;5.772;2024-02-21T07:13:30;8.80;95.40
56478;DHT22;42382;53.210;5.772;2024-02-21T07:15:55;8.80;95.40
56478;DHT22;42382;53.210;5.772;2024-02-21T07:18:21;8.80;95.40
56478;DHT22;42382;53.210;5.772;2024-02-21T07:20:46;8.80;95.40
56478;DHT22;42382;53.210;5.772;2024-02-21T07:23:12;8.80;95.40
56478;DHT22;42382;53.210;5.772;2024-02-21T07:25:38;8.80;95.40
56478;DHT22;42382;53.210;5.772;2024-02-21T07:28:05;8.80;95.40
56478;DHT22;42382;53.210;5.772;2024-02-21T07:30:31;8.80;95.50
56478;DHT22;42382;53.210;5.772;2024-02-21T07:32:56;8.80;95.50
56478;DHT22;42382;53.210;5.772;2024-02-21T07:35:22;8.90;95.50
56478;DHT22;42382;53.210;5.772;2024-02-21T07:37:47;8.90;95.50
56478;DHT22;42382;53.210;5.772;2024-02-21T07:40:17;8.90;95.50
56478;DHT22;42382;53.210;5.772;2024-02-21T07:42:43;8.80;95.50
56478;DHT22;42382;53.210;5.772;2024-02-21T07:45:09;8.80;95.50
56478;DHT22;42382;53.210;5.772;2024-02-21T07:47:36;8.90;95.60
56478;DHT22;42382;53.210;5.772;2024-02-21T07:50:03;8.80;95.60
56478;DHT22;42382;53.210;5.772;2024-02-21T07:52:29;8.90;95.60
56478;DHT22;42382;53.210;5.772;2024-02-21T07:54:55;8.80;95.60
56478;DHT22;42382;53.210;5.772;2024-02-21T07:57:20;8.90;95.60
56478;DHT22;42382;53.210;5.772;2024-02-21T07:59:47;8.90;95.70
56478;DHT22;42382;53.210;5.772;2024-02-21T08:02:16;8.90;95.60
56478;DHT22;42382;53.210;5.772;2024-02-21T08:04:42;8.90;95.70
56478;DHT22;42382;53.210;5.772;2024-02-21T08:07:07;8.90;95.60
56478;DHT22;42382;53.210;5.772;2024-02-21T08:09:33;8.90;95.70
56478;DHT22;42382;53.210;5.772;2024-02-21T08:11:58;8.90;95.70
56478;DHT22;42382;53.210;5.772;2024-02-21T08:14:24;8.90;95.60
56478;DHT22;42382;53.210;5.772;2024-02-21T08:16:52;8.90;95.60
56478;DHT22;42382;53.210;5.772;2024-02-21T08:19:19;8.90;95.60
56478;DHT22;42382;53.210;5.772;2024-02-21T08:21:45;8.90;95.70
56478;DHT22;42382;53.210;5.772;2024-02-21T08:24:13;8.90;95.70
56478;DHT22;42382;53.210;5.772;2024-02-21T08:26:42;8.90;95.70
56478;DHT22;42382;53.210;5.772;2024-02-21T08:29:07;8.90;95.70
56478;DHT22;42382;53.210;5.772;2024-02-21T08:31:33;8.90;95.70
56478;DHT22;42382;53.210;5.772;2024-02-21T08:34:00;8.90;95.70
56478;DHT22;42382;53.210;5.772;2024-02-21T08:36:36;8.90;95.70
56478;DHT22;42382;53.210;5.772;2024-02-21T08:39:02;9.00;95.70
56478;DHT22;42382;53.210;5.772;2024-02-21T08:41:31;8.90;95.70
56478;DHT22;42382;53.210;5.772;2024-02-21T08:43:56;8.90;95.70
56478;DHT22;42382;53.210;5.772;2024-02-21T08:46:22;9.00;95.70
56478;DHT22;42382;53.210;5.772;2024-02-21T08:48:53;9.00;95.70
56478;DHT22;42382;53.210;5.772;2024-02-21T08:51:19;9.00;95.60
56478;DHT22;42382;53.210;5.772;2024-02-21T08:53:45;9.00;95.60
56478;DHT22;42382;53.210;5.772;2024-02-21T08:56:11;9.10;95.60
56478;DHT22;42382;53.210;5.772;2024-02-21T08:58:37;9.10;95.50
56478;DHT22;42382;53.210;5.772;2024-02-21T09:01:05;9.10;95.50
56478;DHT22;42382;53.210;5.772;2024-02-21T09:03:32;9.10;95.50
56478;DHT22;42382;53.210;5.772;2024-02-21T09:05:58;9.10;95.40
56478;DHT22;42382;53.210;5.772;2024-02-21T09:08:24;9.10;95.40
56478;DHT22;42382;53.210;5.772;2024-02-21T09:10:50;9.20;95.40
56478;DHT22;42382;53.210;5.772;2024-02-21T09:13:16;9.20;95.40
56478;DHT22;42382;53.210;5.772;2024-02-21T09:15:42;9.20;95.30
56478;DHT22;42382;53.210;5.772;2024-02-21T09:18:08;9.20;95.30
56478;DHT22;42382;53.210;5.772;2024-02-21T09:20:34;9.20;95.20
56478;DHT22;42382;53.210;5.772;2024-02-21T09:23:00;9.30;95.10
56478;DHT22;42382;53.210;5.772;2024-02-21T09:25:25;9.20;95.10
56478;DHT22;42382;53.210;5.772;2024-02-21T09:27:53;9.30;95.10
56478;DHT22;42382;53.210;5.772;2024-02-21T09:30:19;9.30;94.90
56478;DHT22;42382;53.210;5.772;2024-02-21T09:32:45;9.30;94.80
56478;DHT22;42382;53.210;5.772;2024-02-21T09:35:11;9.30;94.60
56478;DHT22;42382;53.210;5.772;2024-02-21T09:37:38;9.30;94.50
56478;DHT22;42382;53.210;5.772;2024-02-21T09:40:04;9.40;94.60
56478;DHT22;42382;53.210;5.772;2024-02-21T09:42:37;9.40;94.30
56478;DHT22;42382;53.210;5.772;2024-02-21T09:45:08;9.40;94.00
56478;DHT22;42382;53.210;5.772;2024-02-21T09:50:17;9.40;94.00
56478;DHT22;42382;53.210;5.772;2024-02-21T09:52:44;9.50;94.00
56478;DHT22;42382;53.210;5.772;2024-02-21T09:55:10;9.60;94.00
56478;DHT22;42382;53.210;5.772;2024-02-21T09:57:38;9.60;94.00
56478;DHT22;42382;53.210;5.772;2024-02-21T10:00:05;9.60;93.80
56478;DHT22;42382;53.210;5.772;2024-02-21T10:02:34;9.60;93.90
56478;DHT22;42382;53.210;5.772;2024-02-21T10:04:59;9.60;93.80
56478;DHT22;42382;53.210;5.772;2024-02-21T10:07:25;9.60;93.60
56478;DHT22;42382;53.210;5.772;2024-02-21T10:10:01;9.60;93.60
56478;DHT22;42382;53.210;5.772;2024-02-21T10:12:29;9.60;93.50
56478;DHT22;42382;53.210;5.772;2024-02-21T10:15:05;9.60;93.60
56478;DHT22;42382;53.210;5.772;2024-02-21T10:17:35;9.70;93.40
56478;DHT22;42382;53.210;5.772;2024-02-21T10:20:11;9.80;93.30
56478;DHT22;42382;53.210;5.772;2024-02-21T10:22:38;9.70;92.90
56478;DHT22;42382;53.210;5.772;2024-02-21T10:25:14;9.80;92.90
56478;DHT22;42382;53.210;5.772;2024-02-21T10:27:40;9.80;92.80
56478;DHT22;42382;53.210;5.772;2024-02-21T10:30:07;9.80;92.60
56478;DHT22;42382;53.210;5.772;2024-02-21T10:32:33;9.80;92.70
56478;DHT22;42382;53.210;5.772;2024-02-21T10:35:04;9.80;92.50
56478;DHT22;42382;53.210;5.772;2024-02-21T10:37:30;9.90;92.60
56478;DHT22;42382;53.210;5.772;2024-02-21T10:39:56;9.90;92.50
56478;DHT22;42382;53.210;5.772;2024-02-21T10:42:22;9.90;92.30
56478;DHT22;42382;53.210;5.772;2024-02-21T10:44:51;9.90;92.00
56478;DHT22;42382;53.210;5.772;2024-02-21T10:47:17;9.90;91.90
56478;DHT22;42382;53.210;5.772;2024-02-21T10:49:49;9.90;92.10
56478;DHT22;42382;53.210;5.772;2024-02-21T10:55:38;10.00;91.80
56478;DHT22;42382;53.210;5.772;2024-02-21T10:58:05;9.90;91.60
56478;DHT22;42382;53.210;5.772;2024-02-21T11:00:31;9.90;91.60
56478;DHT22;42382;53.210;5.772;2024-02-21T11:02:59;9.90;91.60
56478;DHT22;42382;53.210;5.772;2024-02-21T11:05:25;9.80;91.60
56478;DHT22;42382;53.210;5.772;2024-02-21T11:07:51;9.90;91.70
56478;DHT22;42382;53.210;5.772;2024-02-21T11:10:24;9.80;91.90
56478;DHT22;42382;53.210;5.772;2024-02-21T11:12:53;9.90;91.70
56478;DHT22;42382;53.210;5.772;2024-02-21T11:15:25;9.80;91.70
56478;DHT22;42382;53.210;5.772;2024-02-21T11:17:55;9.80;91.60
56478;DHT22;42382;53.210;5.772;2024-02-21T11:20:35;9.80;91.40
56478;DHT22;42382;53.210;5.772;2024-02-21T11:23:01;9.80;91.60
56478;DHT22;42382;53.210;5.772;2024-02-21T11:25:28;9.70;91.80
56478;DHT22;42382;53.210;5.772;2024-02-21T11:28:00;9.80;91.70
56478;DHT22;42382;53.210;5.772;2024-02-21T11:30:36;9.80;91.50
56478;DHT22;42382;53.210;5.772;2024-02-21T11:33:05;9.80;91.50
56478;DHT22;42382;53.210;5.772;2024-02-21T11:35:35;9.80;91.60
56478;DHT22;42382;53.210;5.772;2024-02-21T11:38:13;9.70;91.60
56478;DHT22;42382;53.210;5.772;2024-02-21T11:40:45;9.80;91.40
56478;DHT22;42382;53.210;5.772;2024-02-21T11:43:10;9.80;91.30
56478;DHT22;42382;53.210;5.772;2024-02-21T11:45:36;9.70;91.40
56478;DHT22;42382;53.210;5.772;2024-02-21T11:48:02;9.70;91.30
56478;DHT22;42382;53.210;5.772;2024-02-21T11:50:29;9.70;91.30
56478;DHT22;42382;53.210;5.772;2024-02-21T11:52:56;9.70;91.20
56478;DHT22;42382;53.210;5.772;2024-02-21T11:55:22;9.70;91.40
56478;DHT22;42382;53.210;5.772;2024-02-21T11:57:48;9.70;91.40
56478;DHT22;42382;53.210;5.772;2024-02-21T12:00:15;9.70;91.20
56478;DHT22;42382;53.210;5.772;2024-02-21T12:02:42;9.80;91.30
56478;DHT22;42382;53.210;5.772;2024-02-21T12:05:08;9.80;91.30
56478;DHT22;42382;53.210;5.772;2024-02-21T12:07:36;9.80;91.20
56478;DHT22;42382;53.210;5.772;2024-02-21T12:10:08;9.80;90.90
56478;DHT22;42382;53.210;5.772;2024-02-21T12:12:35;9.80;90.90
56478;DHT22;42382;53.210;5.772;2024-02-21T12:15:06;9.80;90.70
56478;DHT22;42382;53.210;5.772;2024-02-21T12:17:36;9.80;90.70
56478;DHT22;42382;53.210;5.772;2024-02-21T12:20:02;9.80;90.80
56478;DHT22;42382;53.210;5.772;2024-02-21T12:22:43;9.80;90.60
56478;DHT22;42382;53.210;5.772;2024-02-21T12:25:16;9.90;90.20
56478;DHT22;42382;53.210;5.772;2024-02-21T12:27:43;9.80;90.50
56478;DHT22;42382;53.210;5.772;2024-02-21T12:30:09;9.80;90.40
56478;DHT22;42382;53.210;5.772;2024-02-21T12:32:36;9.80;90.30
56478;DHT22;42382;53.210;5.772;2024-02-21T12:35:02;9.90;90.00
56478;DHT22;42382;53.210;5.772;2024-02-21T12:37:28;9.80;90.30
56478;DHT22;42382;53.210;5.772;2024-02-21T12:39:53;9.80;90.50
56478;DHT22;42382;53.210;5.772;2024-02-21T12:42:19;9.80;90.40
56478;DHT22;42382;53.210;5.772;2024-02-21T12:44:44;9.80;90.60
56478;DHT22;42382;53.210;5.772;2024-02-21T12:47:11;9.80;90.70
56478;DHT22;42382;53.210;5.772;2024-02-21T12:49:37;9.80;90.40
56478;DHT22;42382;53.210;5.772;2024-02-21T12:52:05;9.80;90.40
56478;DHT22;42382;53.210;5.772;2024-02-21T12:54:31;9.80;90.10
56478;DHT22;42382;53.210;5.772;2024-02-21T12:56:57;9.80;90.40
56478;DHT22;42382;53.210;5.772;2024-02-21T12:59:22;9.80;90.30
56478;DHT22;42382;53.210;5.772;2024-02-21T13:01:48;9.80;90.10
56478;DHT22;42382;53.210;5.772;2024-02-21T13:04:14;9.90;90.10
56478;DHT22;42382;53.210;5.772;2024-02-21T13:06:39;9.90;89.90
56478;DHT22;42382;53.210;5.772;2024-02-21T13:09:05;9.90;89.90
56478;DHT22;42382;53.210;5.772;2024-02-21T13:11:36;9.90;89.70
56478;DHT22;42382;53.210;5.772;2024-02-21T13:14:03;10.00;89.90
56478;DHT22;42382;53.210;5.772;2024-02-21T13:16:28;10.00;89.80
56478;DHT22;42382;53.210;5.772;2024-02-21T13:18:54;10.10;89.60
56478;DHT22;42382;53.210;5.772;2024-02-21T13:21:19;10.10;89.30
56478;DHT22;42382;53.210;5.772;2024-02-21T13:23:45;10.10;89.00
56478;DHT22;42382;53.210;5.772;2024-02-21T13:26:10;10.10;88.60
56478;DHT22;42382;53.210;5.772;2024-02-21T13:28:38;10.10;88.80
56478;DHT22;42382;53.210;5.772;2024-02-21T13:31:03;10.10;88.90
56478;DHT22;42382;53.210;5.772;2024-02-21T13:33:29;10.00;88.90
56478;DHT22;42382;53.210;5.772;2024-02-21T13:35:55;10.00;89.00
56478;DHT22;42382;53.210;5.772;2024-02-21T13:38:20;10.00;89.10
56478;DHT22;42382;53.210;5.772;2024-02-21T13:40:46;10.00;88.70
56478;DHT22;42382;53.210;5.772;2024-02-21T13:43:12;10.00;88.90
56478;DHT22;42382;53.210;5.772;2024-02-21T13:45:38;9.90;88.80
56478;DHT22;42382;53.210;5.772;2024-02-21T13:48:05;9.90;89.00
56478;DHT22;42382;53.210;5.772;2024-02-21T13:50:32;9.90;88.90
56478;DHT22;42382;53.210;5.772;2024-02-21T13:52:58;10.00;88.90
56478;DHT22;42382;53.210;5.772;2024-02-21T13:55:23;9.90;88.30
56478;DHT22;42382;53.210;5.772;2024-02-21T13:57:51;10.00;88.70
56478;DHT22;42382;53.210;5.772;2024-02-21T14:00:17;9.90;88.80
56478;DHT22;42382;53.210;5.772;2024-02-21T14:02:43;9.90;89.00
56478;DHT22;42382;53.210;5.772;2024-02-21T14:05:10;9.90;88.90
56478;DHT22;42382;53.210;5.772;2024-02-21T14:07:35;9.90;89.00
56478;DHT22;42382;53.210;5.772;2024-02-21T14:10:01;9.90;89.00
56478;DHT22;42382;53.210;5.772;2024-02-21T14:12:28;9.90;88.90
56478;DHT22;42382;53.210;5.772;2024-02-21T14:14:53;9.90;89.00
56478;DHT22;42382;53.210;5.772;2024-02-21T14:17:20;9.80;89.10
56478;DHT22;42382;53.210;5.772;2024-02-21T14:19:46;9.90;89.20
56478;DHT22;42382;53.210;5.772;2024-02-21T14:22:11;9.80;89.00
56478;DHT22;42382;53.210;5.772;2024-02-21T14:24:37;9.80;89.00
56478;DHT22;42382;53.210;5.772;2024-02-21T14:27:03;9.80;89.10
56478;DHT22;42382;53.210;5.772;2024-02-21T14:29:29;9.80;88.50
56478;DHT22;42382;53.210;5.772;2024-02-21T14:31:54;9.80;88.80
56478;DHT22;42382;53.210;5.772;2024-02-21T14:34:20;9.70;88.80
56478;DHT22;42382;53.210;5.772;2024-02-21T14:36:46;9.70;88.40
56478;DHT22;42382;53.210;5.772;2024-02-21T14:39:11;9.70;88.60
56478;DHT22;42382;53.210;5.772;2024-02-21T14:41:37;9.70;88.80
56478;DHT22;42382;53.210;5.772;2024-02-21T14:44:04;9.70;88.80
56478;DHT22;42382;53.210;5.772;2024-02-21T14:46:30;9.70;88.80
56478;DHT22;42382;53.210;5.772;2024-02-21T14:48:56;9.70;88.90
56478;DHT22;42382;53.210;5.772;2024-02-21T14:51:21;9.70;88.80
56478;DHT22;42382;53.210;5.772;2024-02-21T14:53:47;9.60;89.10
56478;DHT22;42382;53.210;5.772;2024-02-21T14:56:14;9.70;89.20
56478;DHT22;42382;53.210;5.772;2024-02-21T14:58:45;9.60;89.60
56478;DHT22;42382;53.210;5.772;2024-02-21T15:01:12;9.70;89.60
56478;DHT22;42382;53.210;5.772;2024-02-21T15:03:38;9.70;89.70
56478;DHT22;42382;53.210;5.772;2024-02-21T15:06:04;9.70;89.80
56478;DHT22;42382;53.210;5.772;2024-02-21T15:08:30;9.70;89.60
56478;DHT22;42382;53.210;5.772;2024-02-21T15:10:55;9.70;89.60
56478;DHT22;42382;53.210;5.772;2024-02-21T15:13:21;9.70;89.70
56478;DHT22;42382;53.210;5.772;2024-02-21T15:15:48;9.70;89.20
56478;DHT22;42382;53.210;5.772;2024-02-21T15:18:17;9.70;89.30
56478;DHT22;42382;53.210;5.772;2024-02-21T15:20:44;9.70;89.60
56478;DHT22;42382;53.210;5.772;2024-02-21T15:23:10;9.70;89.60
56478;DHT22;42382;53.210;5.772;2024-02-21T15:25:36;9.70;89.60
56478;DHT22;42382;53.210;5.772;2024-02-21T15:28:03;9.60;89.60
56478;DHT22;42382;53.210;5.772;2024-02-21T15:30:30;9.60;89.80
56478;DHT22;42382;53.210;5.772;2024-02-21T15:32:59;9.60;89.90
56478;DHT22;42382;53.210;5.772;2024-02-21T15:35:28;9.60;90.00
56478;DHT22;42382;53.210;5.772;2024-02-21T15:37:54;9.50;90.10
56478;DHT22;42382;53.210;5.772;2024-02-21T15:40:24;9.50;90.50
56478;DHT22;42382;53.210;5.772;2024-02-21T15:42:49;9.50;90.50
56478;DHT22;42382;53.210;5.772;2024-02-21T15:45:15;9.40;90.80
56478;DHT22;42382;53.210;5.772;2024-02-21T15:47:41;9.40;90.90